sensor_id;sensor_type;location;lat;lon;timestamp;P1;durP1;ratioP1;P2;durP2;ratioP2
10387;SDS011;5240;51.128;4.566;2022-12-01T00:02:24;34.33;;;25.13;;
10387;SDS011;5240;51.128;4.566;2022-12-01T00:04:51;35.70;;;25.73;;
10387;SDS011;5240;51.128;4.566;2022-12-01T00:07:18;34.17;;;24.50;;
10387;SDS011;5240;51.128;4.566;2022-12-01T00:09:45;35.00;;;25.45;;
10387;SDS011;5240;51.128;4.566;2022-12-01T00:12:30;36.45;;;25.80;;
10387;SDS011;5240;51.128;4.566;2022-12-01T00:14:57;39.40;;;26.65;;
10387;SDS011;5240;51.128;4.566;2022-12-01T00:17:26;37.40;;;26.80;;
10387;SDS011;5240;51.128;4.566;2022-12-01T00:19:54;35.17;;;25.10;;
10387;SDS011;5240;51.128;4.566;2022-12-01T00:22:21;36.53;;;26.08;;
10387;SDS011;5240;51.128;4.566;2022-12-01T00:24:49;38.80;;;27.45;;
10387;SDS011;5240;51.128;4.566;2022-12-01T00:27:15;42.47;;;29.15;;
10387;SDS011;5240;51.128;4.566;2022-12-01T00:29:44;41.53;;;29.73;;
10387;SDS011;5240;51.128;4.566;2022-12-01T00:32:11;40.25;;;29.77;;
10387;SDS011;5240;51.128;4.566;2022-12-01T00:34:38;43.72;;;30.08;;
10387;SDS011;5240;51.128;4.566;2022-12-01T00:37:05;45.33;;;31.63;;
10387;SDS011;5240;51.128;4.566;2022-12-01T00:39:32;46.33;;;31.10;;
10387;SDS011;5240;51.128;4.566;2022-12-01T00:41:59;44.88;;;31.08;;
10387;SDS011;5240;51.128;4.566;2022-12-01T00:44:26;41.08;;;29.65;;
10387;SDS011;5240;51.128;4.566;2022-12-01T00:46:55;39.15;;;27.98;;
10387;SDS011;5240;51.128;4.566;2022-12-01T00:49:22;40.30;;;26.88;;
10387;SDS011;5240;51.128;4.566;2022-12-01T00:51:49;37.60;;;27.58;;
10387;SDS011;5240;51.128;4.566;2022-12-01T00:54:16;39.10;;;28.40;;
10387;SDS011;5240;51.128;4.566;2022-12-01T00:56:43;42.45;;;30.02;;
10387;SDS011;5240;51.128;4.566;2022-12-01T00:59:10;43.00;;;30.00;;
10387;SDS011;5240;51.128;4.566;2022-12-01T01:01:37;45.00;;;31.60;;
10387;SDS011;5240;51.128;4.566;2022-12-01T01:04:06;41.67;;;27.75;;
10387;SDS011;5240;51.128;4.566;2022-12-01T01:06:33;40.55;;;29.38;;
10387;SDS011;5240;51.128;4.566;2022-12-01T01:09:00;40.50;;;28.90;;
10387;SDS011;5240;51.128;4.566;2022-12-01T01:11:27;41.20;;;28.50;;
10387;SDS011;5240;51.128;4.566;2022-12-01T01:13:54;41.10;;;27.08;;
10387;SDS011;5240;51.128;4.566;2022-12-01T01:16:21;37.10;;;27.23;;
10387;SDS011;5240;51.128;4.566;2022-12-01T01:18:48;33.22;;;24.35;;
10387;SDS011;5240;51.128;4.566;2022-12-01T01:21:18;35.20;;;26.00;;
10387;SDS011;5240;51.128;4.566;2022-12-01T01:23:47;41.28;;;27.10;;
10387;SDS011;5240;51.128;4.566;2022-12-01T01:26:15;35.75;;;24.85;;
10387;SDS011;5240;51.128;4.566;2022-12-01T01:28:44;34.30;;;24.70;;
10387;SDS011;5240;51.128;4.566;2022-12-01T01:31:12;34.90;;;25.02;;
10387;SDS011;5240;51.128;4.566;2022-12-01T01:33:41;37.67;;;25.45;;
10387;SDS011;5240;51.128;4.566;2022-12-01T01:36:08;38.63;;;25.60;;
10387;SDS011;5240;51.128;4.566;2022-12-01T01:38:37;38.90;;;26.15;;
10387;SDS011;5240;51.128;4.566;2022-12-01T01:41:05;40.13;;;27.40;;
10387;SDS011;5240;51.128;4.566;2022-12-01T01:43:40;36.35;;;25.75;;
10387;SDS011;5240;51.128;4.566;2022-12-01T01:46:10;41.13;;;27.48;;
10387;SDS011;5240;51.128;4.566;2022-12-01T01:48:37;39.53;;;26.77;;
10387;SDS011;5240;51.128;4.566;2022-12-01T01:51:07;37.10;;;26.05;;
10387;SDS011;5240;51.128;4.566;2022-12-01T01:53:37;37.20;;;26.25;;
10387;SDS011;5240;51.128;4.566;2022-12-01T01:56:04;38.80;;;27.20;;
10387;SDS011;5240;51.128;4.566;2022-12-01T01:58:32;35.78;;;25.88;;
10387;SDS011;5240;51.128;4.566;2022-12-01T02:01:01;38.67;;;26.35;;
10387;SDS011;5240;51.128;4.566;2022-12-01T02:03:29;39.53;;;27.58;;
10387;SDS011;5240;51.128;4.566;2022-12-01T02:05:57;41.35;;;27.20;;
10387;SDS011;5240;51.128;4.566;2022-12-01T02:08:24;38.78;;;25.90;;
10387;SDS011;5240;51.128;4.566;2022-12-01T02:10:58;37.42;;;26.83;;
10387;SDS011;5240;51.128;4.566;2022-12-01T02:13:55;37.63;;;25.98;;
10387;SDS011;5240;51.128;4.566;2022-12-01T02:16:33;38.33;;;26.75;;
10387;SDS011;5240;51.128;4.566;2022-12-01T02:19:06;38.67;;;26.85;;
10387;SDS011;5240;51.128;4.566;2022-12-01T02:21:57;37.17;;;25.92;;
10387;SDS011;5240;51.128;4.566;2022-12-01T02:24:42;38.53;;;26.23;;
10387;SDS011;5240;51.128;4.566;2022-12-01T02:27:20;38.05;;;26.63;;
10387;SDS011;5240;51.128;4.566;2022-12-01T02:30:00;37.92;;;25.55;;
10387;SDS011;5240;51.128;4.566;2022-12-01T02:32:34;37.83;;;26.33;;
10387;SDS011;5240;51.128;4.566;2022-12-01T02:35:15;40.17;;;25.40;;
10387;SDS011;5240;51.128;4.566;2022-12-01T02:37:49;36.67;;;25.05;;
10387;SDS011;5240;51.128;4.566;2022-12-01T02:40:25;35.53;;;23.13;;
10387;SDS011;5240;51.128;4.566;2022-12-01T02:42:56;30.85;;;22.23;;
10387;SDS011;5240;51.128;4.566;2022-12-01T02:45:34;34.25;;;23.10;;
10387;SDS011;5240;51.128;4.566;2022-12-01T02:48:08;35.05;;;22.67;;
10387;SDS011;5240;51.128;4.566;2022-12-01T02:50:38;34.28;;;22.85;;
10387;SDS011;5240;51.128;4.566;2022-12-01T02:53:07;34.10;;;21.80;;
10387;SDS011;5240;51.128;4.566;2022-12-01T02:55:36;36.58;;;22.92;;
10387;SDS011;5240;51.128;4.566;2022-12-01T02:58:12;32.28;;;21.10;;
10387;SDS011;5240;51.128;4.566;2022-12-01T03:00:41;33.33;;;22.65;;
10387;SDS011;5240;51.128;4.566;2022-12-01T03:03:28;36.33;;;22.35;;
10387;SDS011;5240;51.128;4.566;2022-12-01T03:06:05;36.10;;;24.08;;
10387;SDS011;5240;51.128;4.566;2022-12-01T03:08:39;34.70;;;22.42;;
10387;SDS011;5240;51.128;4.566;2022-12-01T03:11:14;34.75;;;23.30;;
10387;SDS011;5240;51.128;4.566;2022-12-01T03:13:54;35.63;;;22.48;;
10387;SDS011;5240;51.128;4.566;2022-12-01T03:16:32;38.85;;;23.80;;
10387;SDS011;5240;51.128;4.566;2022-12-01T03:19:09;39.25;;;23.58;;
10387;SDS011;5240;51.128;4.566;2022-12-01T03:21:40;35.03;;;22.65;;
10387;SDS011;5240;51.128;4.566;2022-12-01T03:24:12;33.42;;;21.60;;
10387;SDS011;5240;51.128;4.566;2022-12-01T03:26:43;36.35;;;22.63;;
10387;SDS011;5240;51.128;4.566;2022-12-01T03:29:15;35.20;;;22.65;;
10387;SDS011;5240;51.128;4.566;2022-12-01T03:31:46;40.15;;;23.95;;
10387;SDS011;5240;51.128;4.566;2022-12-01T03:34:20;37.75;;;23.42;;
10387;SDS011;5240;51.128;4.566;2022-12-01T03:36:52;33.00;;;22.55;;
10387;SDS011;5240;51.128;4.566;2022-12-01T03:39:22;37.08;;;23.30;;
10387;SDS011;5240;51.128;4.566;2022-12-01T03:41:53;37.47;;;22.15;;
10387;SDS011;5240;51.128;4.566;2022-12-01T03:44:25;34.17;;;21.02;;
10387;SDS011;5240;51.128;4.566;2022-12-01T03:46:57;38.70;;;23.42;;
10387;SDS011;5240;51.128;4.566;2022-12-01T03:49:29;34.85;;;22.88;;
10387;SDS011;5240;51.128;4.566;2022-12-01T03:51:59;36.03;;;23.55;;
10387;SDS011;5240;51.128;4.566;2022-12-01T03:54:38;33.47;;;23.55;;
10387;SDS011;5240;51.128;4.566;2022-12-01T03:57:16;37.35;;;23.02;;
10387;SDS011;5240;51.128;4.566;2022-12-01T03:59:47;34.85;;;22.02;;
10387;SDS011;5240;51.128;4.566;2022-12-01T04:02:15;36.03;;;23.85;;
10387;SDS011;5240;51.128;4.566;2022-12-01T04:04:44;36.55;;;23.50;;
10387;SDS011;5240;51.128;4.566;2022-12-01T04:07:11;35.20;;;23.35;;
10387;SDS011;5240;51.128;4.566;2022-12-01T04:09:39;34.88;;;22.65;;
10387;SDS011;5240;51.128;4.566;2022-12-01T04:12:06;37.55;;;23.50;;
10387;SDS011;5240;51.128;4.566;2022-12-01T04:14:48;35.15;;;21.50;;
10387;SDS011;5240;51.128;4.566;2022-12-01T04:17:15;36.72;;;23.60;;
10387;SDS011;5240;51.128;4.566;2022-12-01T04:19:44;35.90;;;22.70;;
10387;SDS011;5240;51.128;4.566;2022-12-01T04:22:11;38.40;;;23.30;;
10387;SDS011;5240;51.128;4.566;2022-12-01T04:24:38;41.83;;;24.30;;
10387;SDS011;5240;51.128;4.566;2022-12-01T04:27:05;35.45;;;22.02;;
10387;SDS011;5240;51.128;4.566;2022-12-01T04:29:32;37.33;;;23.27;;
10387;SDS011;5240;51.128;4.566;2022-12-01T04:31:59;35.45;;;22.15;;
10387;SDS011;5240;51.128;4.566;2022-12-01T04:34:26;33.47;;;22.25;;
10387;SDS011;5240;51.128;4.566;2022-12-01T04:36:54;35.05;;;23.83;;
10387;SDS011;5240;51.128;4.566;2022-12-01T04:39:21;34.58;;;22.65;;
10387;SDS011;5240;51.128;4.566;2022-12-01T04:41:48;36.35;;;22.90;;
10387;SDS011;5240;51.128;4.566;2022-12-01T04:44:15;36.92;;;22.33;;
10387;SDS011;5240;51.128;4.566;2022-12-01T04:46:43;39.95;;;22.95;;
10387;SDS011;5240;51.128;4.566;2022-12-01T04:49:10;39.05;;;22.73;;
10387;SDS011;5240;51.128;4.566;2022-12-01T04:51:37;36.42;;;23.00;;
10387;SDS011;5240;51.128;4.566;2022-12-01T04:54:05;37.20;;;22.33;;
10387;SDS011;5240;51.128;4.566;2022-12-01T04:56:32;35.80;;;23.23;;
10387;SDS011;5240;51.128;4.566;2022-12-01T04:58:59;35.67;;;21.70;;
10387;SDS011;5240;51.128;4.566;2022-12-01T05:01:26;38.90;;;23.65;;
10387;SDS011;5240;51.128;4.566;2022-12-01T05:03:53;35.17;;;22.10;;
10387;SDS011;5240;51.128;4.566;2022-12-01T05:06:21;40.78;;;22.95;;
10387;SDS011;5240;51.128;4.566;2022-12-01T05:08:49;35.75;;;22.23;;
10387;SDS011;5240;51.128;4.566;2022-12-01T05:11:20;33.53;;;20.15;;
10387;SDS011;5240;51.128;4.566;2022-12-01T05:13:47;38.30;;;21.65;;
10387;SDS011;5240;51.128;4.566;2022-12-01T05:16:16;37.20;;;21.67;;
10387;SDS011;5240;51.128;4.566;2022-12-01T05:18:46;36.15;;;21.13;;
10387;SDS011;5240;51.128;4.566;2022-12-01T05:21:14;38.20;;;22.67;;
10387;SDS011;5240;51.128;4.566;2022-12-01T05:23:42;34.20;;;20.95;;
10387;SDS011;5240;51.128;4.566;2022-12-01T05:26:09;34.15;;;20.80;;
10387;SDS011;5240;51.128;4.566;2022-12-01T05:28:38;32.55;;;20.85;;
10387;SDS011;5240;51.128;4.566;2022-12-01T05:31:05;36.35;;;21.30;;
10387;SDS011;5240;51.128;4.566;2022-12-01T05:33:33;37.38;;;21.85;;
10387;SDS011;5240;51.128;4.566;2022-12-01T05:35:59;37.85;;;22.10;;
10387;SDS011;5240;51.128;4.566;2022-12-01T05:38:26;36.58;;;22.08;;
10387;SDS011;5240;51.128;4.566;2022-12-01T05:40:54;40.28;;;22.92;;
10387;SDS011;5240;51.128;4.566;2022-12-01T05:43:21;37.55;;;23.80;;
10387;SDS011;5240;51.128;4.566;2022-12-01T05:45:50;42.67;;;22.85;;
10387;SDS011;5240;51.128;4.566;2022-12-01T05:48:17;39.28;;;22.15;;
10387;SDS011;5240;51.128;4.566;2022-12-01T05:50:44;40.88;;;22.35;;
10387;SDS011;5240;51.128;4.566;2022-12-01T05:53:12;40.17;;;23.30;;
10387;SDS011;5240;51.128;4.566;2022-12-01T05:55:40;40.47;;;23.50;;
10387;SDS011;5240;51.128;4.566;2022-12-01T05:58:07;43.78;;;23.35;;
10387;SDS011;5240;51.128;4.566;2022-12-01T06:00:35;42.88;;;23.08;;
10387;SDS011;5240;51.128;4.566;2022-12-01T06:03:04;40.03;;;22.92;;
10387;SDS011;5240;51.128;4.566;2022-12-01T06:05:31;40.42;;;23.60;;
10387;SDS011;5240;51.128;4.566;2022-12-01T06:07:58;41.80;;;25.50;;
10387;SDS011;5240;51.128;4.566;2022-12-01T06:10:25;39.53;;;23.58;;
10387;SDS011;5240;51.128;4.566;2022-12-01T06:12:52;37.83;;;23.77;;
10387;SDS011;5240;51.128;4.566;2022-12-01T06:15:19;39.97;;;24.27;;
10387;SDS011;5240;51.128;4.566;2022-12-01T06:17:46;45.15;;;24.65;;
10387;SDS011;5240;51.128;4.566;2022-12-01T06:20:14;41.28;;;24.02;;
10387;SDS011;5240;51.128;4.566;2022-12-01T06:22:41;40.33;;;24.27;;
10387;SDS011;5240;51.128;4.566;2022-12-01T06:25:09;42.63;;;23.98;;
10387;SDS011;5240;51.128;4.566;2022-12-01T06:27:36;41.35;;;24.58;;
10387;SDS011;5240;51.128;4.566;2022-12-01T06:30:03;48.13;;;24.10;;
10387;SDS011;5240;51.128;4.566;2022-12-01T06:32:31;40.72;;;23.30;;
10387;SDS011;5240;51.128;4.566;2022-12-01T06:34:58;39.95;;;23.77;;
10387;SDS011;5240;51.128;4.566;2022-12-01T06:37:27;38.85;;;23.65;;
10387;SDS011;5240;51.128;4.566;2022-12-01T06:39:54;37.13;;;23.20;;
10387;SDS011;5240;51.128;4.566;2022-12-01T06:42:21;39.33;;;24.48;;
10387;SDS011;5240;51.128;4.566;2022-12-01T06:44:48;39.85;;;22.80;;
10387;SDS011;5240;51.128;4.566;2022-12-01T06:47:15;36.63;;;23.67;;
10387;SDS011;5240;51.128;4.566;2022-12-01T06:49:42;42.88;;;25.08;;
10387;SDS011;5240;51.128;4.566;2022-12-01T06:52:09;41.17;;;25.00;;
10387;SDS011;5240;51.128;4.566;2022-12-01T06:54:37;43.40;;;26.98;;
10387;SDS011;5240;51.128;4.566;2022-12-01T06:57:05;46.75;;;25.88;;
10387;SDS011;5240;51.128;4.566;2022-12-01T06:59:32;40.05;;;24.65;;
10387;SDS011;5240;51.128;4.566;2022-12-01T07:01:59;38.78;;;24.65;;
10387;SDS011;5240;51.128;4.566;2022-12-01T07:04:27;38.05;;;23.80;;
10387;SDS011;5240;51.128;4.566;2022-12-01T07:06:55;39.25;;;25.10;;
10387;SDS011;5240;51.128;4.566;2022-12-01T07:09:22;37.42;;;24.55;;
10387;SDS011;5240;51.128;4.566;2022-12-01T07:11:51;39.17;;;24.60;;
10387;SDS011;5240;51.128;4.566;2022-12-01T07:14:19;41.75;;;25.52;;
10387;SDS011;5240;51.128;4.566;2022-12-01T07:16:50;47.70;;;26.00;;
10387;SDS011;5240;51.128;4.566;2022-12-01T07:19:17;43.10;;;26.10;;
10387;SDS011;5240;51.128;4.566;2022-12-01T07:21:45;43.75;;;25.90;;
10387;SDS011;5240;51.128;4.566;2022-12-01T07:24:13;46.30;;;24.98;;
10387;SDS011;5240;51.128;4.566;2022-12-01T07:26:41;40.50;;;26.13;;
10387;SDS011;5240;51.128;4.566;2022-12-01T07:29:10;46.15;;;25.80;;
10387;SDS011;5240;51.128;4.566;2022-12-01T07:31:38;44.85;;;26.60;;
10387;SDS011;5240;51.128;4.566;2022-12-01T07:34:05;43.75;;;26.67;;
10387;SDS011;5240;51.128;4.566;2022-12-01T07:36:33;41.88;;;26.05;;
10387;SDS011;5240;51.128;4.566;2022-12-01T07:39:03;39.60;;;24.35;;
10387;SDS011;5240;51.128;4.566;2022-12-01T07:41:31;40.13;;;26.05;;
10387;SDS011;5240;51.128;4.566;2022-12-01T07:44:00;38.42;;;24.75;;
10387;SDS011;5240;51.128;4.566;2022-12-01T07:46:29;47.08;;;26.63;;
10387;SDS011;5240;51.128;4.566;2022-12-01T07:48:56;43.25;;;27.05;;
10387;SDS011;5240;51.128;4.566;2022-12-01T07:51:25;44.33;;;26.40;;
10387;SDS011;5240;51.128;4.566;2022-12-01T07:53:53;43.38;;;27.48;;
10387;SDS011;5240;51.128;4.566;2022-12-01T07:56:20;47.38;;;26.88;;
10387;SDS011;5240;51.128;4.566;2022-12-01T07:58:48;44.20;;;25.80;;
10387;SDS011;5240;51.128;4.566;2022-12-01T08:01:16;41.67;;;25.45;;
10387;SDS011;5240;51.128;4.566;2022-12-01T08:03:50;43.75;;;27.00;;
10387;SDS011;5240;51.128;4.566;2022-12-01T08:06:20;44.25;;;26.58;;
10387;SDS011;5240;51.128;4.566;2022-12-01T08:08:48;42.05;;;26.02;;
10387;SDS011;5240;51.128;4.566;2022-12-01T08:11:16;42.25;;;26.13;;
10387;SDS011;5240;51.128;4.566;2022-12-01T08:13:45;46.67;;;26.40;;
10387;SDS011;5240;51.128;4.566;2022-12-01T08:16:13;43.72;;;26.45;;
10387;SDS011;5240;51.128;4.566;2022-12-01T08:18:44;43.72;;;26.95;;
10387;SDS011;5240;51.128;4.566;2022-12-01T08:21:14;40.53;;;26.13;;
10387;SDS011;5240;51.128;4.566;2022-12-01T08:23:43;42.67;;;27.42;;
10387;SDS011;5240;51.128;4.566;2022-12-01T08:26:12;43.70;;;26.73;;
10387;SDS011;5240;51.128;4.566;2022-12-01T08:28:45;44.20;;;27.92;;
10387;SDS011;5240;51.128;4.566;2022-12-01T08:31:15;47.90;;;27.60;;
10387;SDS011;5240;51.128;4.566;2022-12-01T08:33:52;42.90;;;27.30;;
10387;SDS011;5240;51.128;4.566;2022-12-01T08:36:22;41.35;;;25.80;;
10387;SDS011;5240;51.128;4.566;2022-12-01T08:38:51;38.55;;;24.58;;
10387;SDS011;5240;51.128;4.566;2022-12-01T08:41:20;40.33;;;25.42;;
10387;SDS011;5240;51.128;4.566;2022-12-01T08:46:29;38.45;;;25.52;;
10387;SDS011;5240;51.128;4.566;2022-12-01T08:49:05;44.33;;;26.90;;
10387;SDS011;5240;51.128;4.566;2022-12-01T08:54:33;42.83;;;25.92;;
10387;SDS011;5240;51.128;4.566;2022-12-01T08:57:18;42.58;;;26.20;;
10387;SDS011;5240;51.128;4.566;2022-12-01T09:00:19;42.38;;;24.83;;
10387;SDS011;5240;51.128;4.566;2022-12-01T09:03:10;41.53;;;25.90;;
10387;SDS011;5240;51.128;4.566;2022-12-01T09:05:37;42.80;;;26.52;;
10387;SDS011;5240;51.128;4.566;2022-12-01T09:08:08;41.22;;;26.50;;
10387;SDS011;5240;51.128;4.566;2022-12-01T09:10:55;47.72;;;27.10;;
10387;SDS011;5240;51.128;4.566;2022-12-01T09:13:22;51.75;;;27.67;;
10387;SDS011;5240;51.128;4.566;2022-12-01T09:21:08;48.15;;;27.25;;
10387;SDS011;5240;51.128;4.566;2022-12-01T09:23:36;43.78;;;25.42;;
10387;SDS011;5240;51.128;4.566;2022-12-01T09:26:05;49.58;;;28.42;;
10387;SDS011;5240;51.128;4.566;2022-12-01T09:28:33;43.80;;;27.02;;
10387;SDS011;5240;51.128;4.566;2022-12-01T09:31:02;44.75;;;27.10;;
10387;SDS011;5240;51.128;4.566;2022-12-01T09:33:30;50.65;;;28.13;;
10387;SDS011;5240;51.128;4.566;2022-12-01T09:35:58;44.30;;;27.15;;
10387;SDS011;5240;51.128;4.566;2022-12-01T09:38:27;45.95;;;25.88;;
10387;SDS011;5240;51.128;4.566;2022-12-01T09:40:55;41.75;;;26.33;;
10387;SDS011;5240;51.128;4.566;2022-12-01T09:43:27;44.92;;;27.02;;
10387;SDS011;5240;51.128;4.566;2022-12-01T09:46:03;46.05;;;26.08;;
10387;SDS011;5240;51.128;4.566;2022-12-01T09:48:34;44.05;;;26.85;;
10387;SDS011;5240;51.128;4.566;2022-12-01T09:51:08;45.50;;;27.63;;
10387;SDS011;5240;51.128;4.566;2022-12-01T09:53:54;46.53;;;27.17;;
10387;SDS011;5240;51.128;4.566;2022-12-01T09:56:30;45.88;;;26.45;;
10387;SDS011;5240;51.128;4.566;2022-12-01T09:59:03;43.22;;;27.63;;
10387;SDS011;5240;51.128;4.566;2022-12-01T10:01:33;43.42;;;28.48;;
10387;SDS011;5240;51.128;4.566;2022-12-01T10:04:04;43.75;;;27.10;;
10387;SDS011;5240;51.128;4.566;2022-12-01T10:06:37;43.55;;;26.77;;
10387;SDS011;5240;51.128;4.566;2022-12-01T10:09:11;46.97;;;26.40;;
10387;SDS011;5240;51.128;4.566;2022-12-01T10:11:50;44.30;;;26.85;;
10387;SDS011;5240;51.128;4.566;2022-12-01T10:17:46;46.92;;;26.55;;
10387;SDS011;5240;51.128;4.566;2022-12-01T10:20:23;48.35;;;29.00;;
10387;SDS011;5240;51.128;4.566;2022-12-01T10:23:05;39.40;;;25.73;;
10387;SDS011;5240;51.128;4.566;2022-12-01T10:25:54;41.03;;;26.02;;
10387;SDS011;5240;51.128;4.566;2022-12-01T10:28:32;42.78;;;26.33;;
10387;SDS011;5240;51.128;4.566;2022-12-01T10:31:25;42.25;;;26.33;;
10387;SDS011;5240;51.128;4.566;2022-12-01T10:34:05;41.97;;;25.08;;
10387;SDS011;5240;51.128;4.566;2022-12-01T10:36:51;55.10;;;26.67;;
10387;SDS011;5240;51.128;4.566;2022-12-01T10:39:21;39.80;;;24.70;;
10387;SDS011;5240;51.128;4.566;2022-12-01T10:41:55;40.00;;;24.58;;
10387;SDS011;5240;51.128;4.566;2022-12-01T10:44:36;40.90;;;25.98;;
10387;SDS011;5240;51.128;4.566;2022-12-01T10:47:04;38.00;;;25.02;;
10387;SDS011;5240;51.128;4.566;2022-12-01T10:50:02;40.85;;;25.70;;
10387;SDS011;5240;51.128;4.566;2022-12-01T10:52:36;45.40;;;26.73;;
10387;SDS011;5240;51.128;4.566;2022-12-01T10:55:23;44.50;;;27.00;;
10387;SDS011;5240;51.128;4.566;2022-12-01T10:57:53;41.95;;;25.15;;
10387;SDS011;5240;51.128;4.566;2022-12-01T11:00:33;43.67;;;26.23;;
10387;SDS011;5240;51.128;4.566;2022-12-01T11:03:03;40.97;;;26.27;;
10387;SDS011;5240;51.128;4.566;2022-12-01T11:06:25;42.92;;;26.05;;
10387;SDS011;5240;51.128;4.566;2022-12-01T11:09:18;40.85;;;25.77;;
10387;SDS011;5240;51.128;4.566;2022-12-01T11:11:53;41.55;;;26.58;;
10387;SDS011;5240;51.128;4.566;2022-12-01T11:14:27;41.38;;;26.95;;
10387;SDS011;5240;51.128;4.566;2022-12-01T11:19:40;41.42;;;26.40;;
10387;SDS011;5240;51.128;4.566;2022-12-01T11:25:01;40.38;;;26.75;;
10387;SDS011;5240;51.128;4.566;2022-12-01T11:27:31;40.95;;;26.55;;
10387;SDS011;5240;51.128;4.566;2022-12-01T11:32:39;38.53;;;25.27;;
10387;SDS011;5240;51.128;4.566;2022-12-01T11:35:16;39.05;;;26.08;;
10387;SDS011;5240;51.128;4.566;2022-12-01T11:37:46;41.03;;;24.50;;
10387;SDS011;5240;51.128;4.566;2022-12-01T11:40:19;36.47;;;23.92;;
10387;SDS011;5240;51.128;4.566;2022-12-01T11:42:50;38.22;;;23.60;;
10387;SDS011;5240;51.128;4.566;2022-12-01T11:45:25;37.17;;;23.90;;
10387;SDS011;5240;51.128;4.566;2022-12-01T11:47:57;35.70;;;24.92;;
10387;SDS011;5240;51.128;4.566;2022-12-01T11:50:29;37.28;;;23.17;;
10387;SDS011;5240;51.128;4.566;2022-12-01T11:52:58;36.92;;;23.98;;
10387;SDS011;5240;51.128;4.566;2022-12-01T11:55:27;34.60;;;24.35;;
10387;SDS011;5240;51.128;4.566;2022-12-01T11:57:57;39.60;;;24.42;;
10387;SDS011;5240;51.128;4.566;2022-12-01T12:00:27;37.60;;;24.10;;
10387;SDS011;5240;51.128;4.566;2022-12-01T12:03:13;38.03;;;24.27;;
10387;SDS011;5240;51.128;4.566;2022-12-01T12:08:40;33.20;;;23.35;;
10387;SDS011;5240;51.128;4.566;2022-12-01T12:11:23;34.85;;;23.80;;
10387;SDS011;5240;51.128;4.566;2022-12-01T12:14:02;37.30;;;23.45;;
10387;SDS011;5240;51.128;4.566;2022-12-01T12:16:46;36.03;;;22.67;;
10387;SDS011;5240;51.128;4.566;2022-12-01T12:19:30;39.20;;;24.30;;
10387;SDS011;5240;51.128;4.566;2022-12-01T12:22:08;37.40;;;24.90;;
10387;SDS011;5240;51.128;4.566;2022-12-01T12:24:48;36.20;;;24.75;;
10387;SDS011;5240;51.128;4.566;2022-12-01T12:27:27;41.53;;;25.30;;
10387;SDS011;5240;51.128;4.566;2022-12-01T12:30:09;35.97;;;25.45;;
10387;SDS011;5240;51.128;4.566;2022-12-01T12:32:51;40.22;;;26.35;;
10387;SDS011;5240;51.128;4.566;2022-12-01T12:35:42;38.20;;;25.80;;
10387;SDS011;5240;51.128;4.566;2022-12-01T12:38:28;40.00;;;26.92;;
10387;SDS011;5240;51.128;4.566;2022-12-01T12:41:15;41.85;;;25.95;;
10387;SDS011;5240;51.128;4.566;2022-12-01T12:43:58;40.88;;;26.55;;
10387;SDS011;5240;51.128;4.566;2022-12-01T12:46:37;38.10;;;25.45;;
10387;SDS011;5240;51.128;4.566;2022-12-01T12:49:16;41.92;;;25.88;;
10387;SDS011;5240;51.128;4.566;2022-12-01T12:51:53;37.58;;;24.80;;
10387;SDS011;5240;51.128;4.566;2022-12-01T12:54:30;38.38;;;24.02;;
10387;SDS011;5240;51.128;4.566;2022-12-01T12:57:22;35.45;;;24.52;;
10387;SDS011;5240;51.128;4.566;2022-12-01T13:00:14;39.33;;;24.08;;
10387;SDS011;5240;51.128;4.566;2022-12-01T13:02:43;33.70;;;23.10;;
10387;SDS011;5240;51.128;4.566;2022-12-01T13:05:14;34.60;;;22.35;;
10387;SDS011;5240;51.128;4.566;2022-12-01T13:07:46;32.20;;;22.27;;
10387;SDS011;5240;51.128;4.566;2022-12-01T13:10:23;30.17;;;20.40;;
10387;SDS011;5240;51.128;4.566;2022-12-01T13:13:14;37.83;;;23.08;;
10387;SDS011;5240;51.128;4.566;2022-12-01T13:16:14;31.25;;;20.60;;
10387;SDS011;5240;51.128;4.566;2022-12-01T13:18:46;33.50;;;21.80;;
10387;SDS011;5240;51.128;4.566;2022-12-01T13:21:34;34.25;;;22.60;;
10387;SDS011;5240;51.128;4.566;2022-12-01T13:24:21;34.05;;;21.95;;
10387;SDS011;5240;51.128;4.566;2022-12-01T13:26:51;35.97;;;22.63;;
10387;SDS011;5240;51.128;4.566;2022-12-01T13:29:36;38.33;;;23.73;;
10387;SDS011;5240;51.128;4.566;2022-12-01T13:32:20;38.97;;;23.25;;
10387;SDS011;5240;51.128;4.566;2022-12-01T13:34:52;41.05;;;23.55;;
10387;SDS011;5240;51.128;4.566;2022-12-01T13:37:24;39.10;;;24.55;;
10387;SDS011;5240;51.128;4.566;2022-12-01T13:39:53;32.88;;;21.65;;
10387;SDS011;5240;51.128;4.566;2022-12-01T13:44:57;33.78;;;21.42;;
10387;SDS011;5240;51.128;4.566;2022-12-01T13:47:37;35.45;;;22.15;;
10387;SDS011;5240;51.128;4.566;2022-12-01T14:06:25;31.70;;;19.10;;
10387;SDS011;5240;51.128;4.566;2022-12-01T14:08:57;33.60;;;20.85;;
10387;SDS011;5240;51.128;4.566;2022-12-01T14:11:27;31.35;;;19.08;;
10387;SDS011;5240;51.128;4.566;2022-12-01T14:13:56;29.10;;;18.10;;
10387;SDS011;5240;51.128;4.566;2022-12-01T14:16:43;27.52;;;18.77;;
10387;SDS011;5240;51.128;4.566;2022-12-01T14:19:24;29.95;;;18.30;;
10387;SDS011;5240;51.128;4.566;2022-12-01T14:21:56;26.52;;;17.75;;
10387;SDS011;5240;51.128;4.566;2022-12-01T14:24:26;29.45;;;19.67;;
10387;SDS011;5240;51.128;4.566;2022-12-01T14:26:58;29.52;;;16.98;;
10387;SDS011;5240;51.128;4.566;2022-12-01T14:29:27;28.42;;;17.30;;
10387;SDS011;5240;51.128;4.566;2022-12-01T14:34:50;25.25;;;17.65;;
10387;SDS011;5240;51.128;4.566;2022-12-01T14:37:26;29.55;;;16.42;;
10387;SDS011;5240;51.128;4.566;2022-12-01T14:40:05;27.92;;;17.85;;
10387;SDS011;5240;51.128;4.566;2022-12-01T14:42:38;38.42;;;17.75;;
10387;SDS011;5240;51.128;4.566;2022-12-01T14:45:25;32.90;;;18.80;;
10387;SDS011;5240;51.128;4.566;2022-12-01T14:47:59;36.08;;;20.08;;
10387;SDS011;5240;51.128;4.566;2022-12-01T14:50:48;33.45;;;19.95;;
10387;SDS011;5240;51.128;4.566;2022-12-01T14:53:21;34.60;;;19.95;;
10387;SDS011;5240;51.128;4.566;2022-12-01T14:55:53;36.28;;;21.08;;
10387;SDS011;5240;51.128;4.566;2022-12-01T14:58:23;36.22;;;21.63;;
10387;SDS011;5240;51.128;4.566;2022-12-01T15:00:54;36.95;;;20.95;;
10387;SDS011;5240;51.128;4.566;2022-12-01T15:03:31;36.33;;;20.42;;
10387;SDS011;5240;51.128;4.566;2022-12-01T15:06:03;36.47;;;20.15;;
10387;SDS011;5240;51.128;4.566;2022-12-01T15:08:34;33.65;;;20.13;;
10387;SDS011;5240;51.128;4.566;2022-12-01T15:11:04;45.75;;;22.23;;
10387;SDS011;5240;51.128;4.566;2022-12-01T15:13:38;34.30;;;20.95;;
10387;SDS011;5240;51.128;4.566;2022-12-01T15:16:13;34.72;;;21.08;;
10387;SDS011;5240;51.128;4.566;2022-12-01T15:18:41;35.60;;;21.83;;
10387;SDS011;5240;51.128;4.566;2022-12-01T15:21:09;46.33;;;22.42;;
10387;SDS011;5240;51.128;4.566;2022-12-01T15:23:52;35.67;;;21.77;;
10387;SDS011;5240;51.128;4.566;2022-12-01T15:26:24;39.80;;;22.05;;
10387;SDS011;5240;51.128;4.566;2022-12-01T15:29:03;45.90;;;21.70;;
10387;SDS011;5240;51.128;4.566;2022-12-01T15:31:31;41.10;;;22.73;;
10387;SDS011;5240;51.128;4.566;2022-12-01T15:33:59;35.22;;;21.70;;
10387;SDS011;5240;51.128;4.566;2022-12-01T15:36:28;36.88;;;21.45;;
10387;SDS011;5240;51.128;4.566;2022-12-01T15:38:57;49.95;;;24.50;;
10387;SDS011;5240;51.128;4.566;2022-12-01T15:41:25;35.00;;;22.38;;
10387;SDS011;5240;51.128;4.566;2022-12-01T15:43:53;42.35;;;24.60;;
10387;SDS011;5240;51.128;4.566;2022-12-01T15:46:25;35.63;;;22.63;;
10387;SDS011;5240;51.128;4.566;2022-12-01T15:49:04;37.38;;;22.80;;
10387;SDS011;5240;51.128;4.566;2022-12-01T15:51:31;43.50;;;23.60;;